createdAt,value
2023-05-14T00:02:11.971Z,55.55
2023-05-14T00:07:14.253Z,55.61
2023-05-14T00:12:16.441Z,56.69
2023-05-14T00:17:19.550Z,56.63
2023-05-14T00:22:21.839Z,56.73
2023-05-14T00:27:24.733Z,56.72
2023-05-14T00:32:27.109Z,56.75
2023-05-14T00:37:29.388Z,56.94
2023-05-14T00:42:31.689Z,57.26
2023-05-14T00:47:35.320Z,57.76
2023-05-14T00:52:39.027Z,57.87
2023-05-14T00:57:41.319Z,58.34
2023-05-14T01:02:43.640Z,59.24
2023-05-14T01:08:01.112Z,59.30
2023-05-14T01:13:28.529Z,59.48
2023-05-14T01:18:33.398Z,60.00
2023-05-14T01:23:35.681Z,59.92
2023-05-14T01:28:39.012Z,60.13
2023-05-14T01:33:43.841Z,60.55
2023-05-14T01:38:48.527Z,60.45
2023-05-14T01:43:50.937Z,60.89
2023-05-14T01:48:53.175Z,60.71
2023-05-14T01:53:55.454Z,60.44
2023-05-14T01:58:57.605Z,60.63
2023-05-14T02:04:01.509Z,60.49
2023-05-14T02:09:05.408Z,60.35
2023-05-14T02:14:07.559Z,60.60
2023-05-14T02:19:10.206Z,60.52
2023-05-14T02:24:12.650Z,60.72
2023-05-14T02:29:14.867Z,60.77
2023-05-14T02:34:17.157Z,60.92
2023-05-14T02:39:19.436Z,61.25
2023-05-14T02:44:21.765Z,61.68
2023-05-14T02:49:23.990Z,61.70
2023-05-14T02:54:26.179Z,61.89
2023-05-14T02:59:28.601Z,61.58
2023-05-14T03:04:31.266Z,61.61
2023-05-14T03:09:34.243Z,61.46
2023-05-14T03:14:37.567Z,61.33
2023-05-14T03:19:40.049Z,61.60
2023-05-14T03:24:42.288Z,62.11
2023-05-14T03:29:44.591Z,62.36
2023-05-14T03:34:46.796Z,62.58
2023-05-14T03:39:49.000Z,62.41
2023-05-14T03:44:51.235Z,61.63
2023-05-14T03:49:53.539Z,62.06
2023-05-14T03:54:55.858Z,61.62
2023-05-14T03:59:58.149Z,62.22
2023-05-14T04:05:00.438Z,62.18
2023-05-14T04:10:04.689Z,62.38
2023-05-14T04:15:07.841Z,62.78
2023-05-14T04:20:10.616Z,62.46
2023-05-14T04:25:12.914Z,62.74
2023-05-14T04:30:15.328Z,62.53
2023-05-14T04:35:17.518Z,61.93
2023-05-14T04:40:19.889Z,61.97
2023-05-14T04:45:22.213Z,61.99
2023-05-14T04:50:24.737Z,62.29
2023-05-14T04:55:27.260Z,62.26
2023-05-14T05:00:30.122Z,61.99
2023-05-14T05:05:32.430Z,61.86
2023-05-14T05:10:34.749Z,61.83
2023-05-14T05:15:37.073Z,61.81
2023-05-14T05:20:39.326Z,63.75
2023-05-14T05:25:41.754Z,62.86
2023-05-14T05:30:45.933Z,62.32
2023-05-14T05:35:49.391Z,62.62
2023-05-14T05:40:51.585Z,62.46
2023-05-14T05:45:53.753Z,62.69
2023-05-14T05:50:56.081Z,62.34
2023-05-14T05:55:58.363Z,62.11
2023-05-14T06:01:00.678Z,61.99
2023-05-14T06:06:03.411Z,61.59
2023-05-14T06:11:05.762Z,61.60
2023-05-14T06:16:08.073Z,61.59
2023-05-14T06:21:10.381Z,61.68
2023-05-14T06:26:12.560Z,61.71
2023-05-14T06:31:14.800Z,61.98
2023-05-14T06:36:17.013Z,62.01
2023-05-14T06:41:19.252Z,61.84
2023-05-14T06:46:21.995Z,62.00
2023-05-14T06:51:24.175Z,61.92
2023-05-14T06:56:26.538Z,62.19
2023-05-14T07:01:28.915Z,61.83
2023-05-14T07:06:31.287Z,61.83
2023-05-14T07:11:33.977Z,62.18
2023-05-14T07:16:36.593Z,62.20
2023-05-14T07:21:38.947Z,62.19
2023-05-14T07:26:41.213Z,62.19
2023-05-14T07:31:43.913Z,62.22
2023-05-14T07:36:47.298Z,61.60
2023-05-14T07:41:50.581Z,61.52
2023-05-14T07:46:52.759Z,60.56
2023-05-14T07:51:55.043Z,59.83
2023-05-14T07:56:57.343Z,58.92
2023-05-14T08:01:59.615Z,58.13
2023-05-14T08:07:01.991Z,57.21
2023-05-14T08:12:04.811Z,56.01
2023-05-14T08:17:07.056Z,55.64
2023-05-14T08:22:09.388Z,55.04
2023-05-14T08:27:11.566Z,54.94
2023-05-14T08:32:22.706Z,54.28
2023-05-14T08:37:26.004Z,53.42
2023-05-14T08:42:29.685Z,53.08
2023-05-14T08:47:32.389Z,52.21
2023-05-14T08:52:35.635Z,52.10
2023-05-14T08:57:38.030Z,51.73
2023-05-14T09:02:41.316Z,51.42
2023-05-14T09:07:43.825Z,51.35
2023-05-14T09:12:46.193Z,51.17
2023-05-14T09:17:49.071Z,50.43
2023-05-14T09:22:55.082Z,49.81
2023-05-14T09:27:58.777Z,49.44
2023-05-14T09:33:01.993Z,49.07
2023-05-14T09:38:04.325Z,48.21
2023-05-14T09:43:06.819Z,48.23
2023-05-14T09:48:09.657Z,47.97
2023-05-14T09:53:12.248Z,47.74
2023-05-14T09:58:17.255Z,47.33
2023-05-14T10:03:20.879Z,46.67
2023-05-14T10:08:27.656Z,46.74
2023-05-14T10:13:42.074Z,46.19
2023-05-14T10:18:48.874Z,45.88
2023-05-14T10:23:52.066Z,45.48
2023-05-14T10:28:54.681Z,45.12
2023-05-14T10:33:58.024Z,45.17
2023-05-14T10:39:04.787Z,44.07
2023-05-14T10:44:10.584Z,42.95
2023-05-14T10:49:12.804Z,42.95
2023-05-14T10:54:17.378Z,42.96
2023-05-14T10:59:20.080Z,42.87
2023-05-14T11:04:25.464Z,43.18
2023-05-14T11:09:28.412Z,42.81
2023-05-14T11:14:30.786Z,42.95
2023-05-14T11:19:33.076Z,42.31
2023-05-14T11:24:35.386Z,42.21
2023-05-14T11:29:38.842Z,41.95
2023-05-14T11:34:42.178Z,41.17
2023-05-14T11:39:53.256Z,41.83
2023-05-14T11:44:55.580Z,42.12
2023-05-14T11:49:57.992Z,42.64
2023-05-14T11:55:00.344Z,41.86
2023-05-14T12:00:02.675Z,41.87
2023-05-14T12:05:07.738Z,42.25
2023-05-14T12:10:13.420Z,42.47
2023-05-14T12:15:19.584Z,42.54
2023-05-14T12:20:22.089Z,42.23
2023-05-14T12:25:26.484Z,42.12
2023-05-14T12:30:28.852Z,41.52
2023-05-14T12:35:31.182Z,41.52
2023-05-14T12:40:33.675Z,41.19
2023-05-14T12:45:35.965Z,40.55
2023-05-14T12:50:38.185Z,39.44
2023-05-14T12:55:40.337Z,39.05
2023-05-14T13:00:42.657Z,38.65
2023-05-14T13:05:45.034Z,38.18
2023-05-14T13:10:47.562Z,38.16
2023-05-14T13:15:50.051Z,38.22
2023-05-14T13:20:52.415Z,37.55
2023-05-14T13:25:54.610Z,36.58
2023-05-14T13:31:14.708Z,36.54
2023-05-14T13:36:16.940Z,36.18
2023-05-14T13:41:19.369Z,35.54
2023-05-14T13:46:21.717Z,35.25
2023-05-14T13:51:24.178Z,35.48
2023-05-14T13:56:26.657Z,34.89
2023-05-14T14:01:31.072Z,34.71
2023-05-14T14:06:33.692Z,34.74
2023-05-14T14:11:36.226Z,34.54
2023-05-14T14:16:38.633Z,34.93
2023-05-14T14:21:43.181Z,34.83
2023-05-14T14:26:45.420Z,34.68
2023-05-14T14:31:47.720Z,34.54
2023-05-14T14:36:49.978Z,35.13
2023-05-14T14:41:52.280Z,34.96
2023-05-14T14:46:54.499Z,35.24
2023-05-14T14:51:56.802Z,35.46
2023-05-14T14:56:59.069Z,35.56
2023-05-14T15:02:01.308Z,35.58
2023-05-14T15:07:03.616Z,35.80
2023-05-14T15:12:06.674Z,36.15
2023-05-14T15:17:08.956Z,35.93
2023-05-14T15:22:11.405Z,35.58
2023-05-14T15:27:13.625Z,35.20
2023-05-14T15:32:17.513Z,35.10
2023-05-14T15:37:19.696Z,35.61
2023-05-14T15:42:21.988Z,36.10
2023-05-14T15:47:24.364Z,37.28
2023-05-14T15:52:26.998Z,38.13
2023-05-14T15:57:29.234Z,38.80
2023-05-14T16:02:33.620Z,39.63
2023-05-14T16:07:36.469Z,40.18
2023-05-14T16:12:38.750Z,40.94
2023-05-14T16:17:41.272Z,41.19
2023-05-14T16:22:43.453Z,41.23
2023-05-14T16:27:45.689Z,41.90
2023-05-14T16:32:49.803Z,42.23
2023-05-14T16:37:51.917Z,42.60
2023-05-14T16:42:54.032Z,43.02
2023-05-14T16:47:56.234Z,43.52
2023-05-14T16:52:58.428Z,43.60
2023-05-14T16:58:00.552Z,43.73
2023-05-14T17:03:03.677Z,43.67
2023-05-14T17:08:06.251Z,43.95
2023-05-14T17:13:08.461Z,44.15
2023-05-14T17:18:12.286Z,44.28
2023-05-14T17:23:14.437Z,44.58
2023-05-14T17:28:16.649Z,44.71
2023-05-14T17:33:18.929Z,44.91
2023-05-14T17:38:21.117Z,45.11
2023-05-14T17:43:23.317Z,45.30
2023-05-14T17:48:25.604Z,45.46
2023-05-14T17:53:27.811Z,45.71
2023-05-14T17:58:30.146Z,46.04
2023-05-14T18:03:32.508Z,46.46
2023-05-14T18:08:34.751Z,46.98
2023-05-14T18:13:37.083Z,47.58
2023-05-14T18:18:39.338Z,48.01
2023-05-14T18:23:41.518Z,48.32
2023-05-14T18:28:43.748Z,48.46
2023-05-14T18:33:45.901Z,48.49
2023-05-14T18:38:48.099Z,48.44
2023-05-14T18:43:50.369Z,48.55
2023-05-14T18:48:52.525Z,48.74
2023-05-14T18:53:55.055Z,48.95
2023-05-14T18:58:57.232Z,48.85
2023-05-14T19:03:59.476Z,49.40
2023-05-14T19:09:02.087Z,49.71
2023-05-14T19:14:04.328Z,49.76
2023-05-14T19:19:06.596Z,50.19
2023-05-14T19:24:09.063Z,50.35
2023-05-14T19:29:11.474Z,50.42
2023-05-14T19:34:14.397Z,50.28
2023-05-14T19:39:16.753Z,50.17
2023-05-14T19:44:18.993Z,50.53
2023-05-14T19:49:21.187Z,50.57
2023-05-14T19:54:23.290Z,50.18
2023-05-14T19:59:25.683Z,50.34
2023-05-14T20:04:28.483Z,50.21
2023-05-14T20:09:30.743Z,50.19
2023-05-14T20:14:32.848Z,49.97
2023-05-14T20:19:35.299Z,49.80
2023-05-14T20:24:37.414Z,49.86
2023-05-14T20:29:39.492Z,49.99
2023-05-14T20:34:41.650Z,50.12
2023-05-14T20:39:44.044Z,50.33
2023-05-14T20:44:48.557Z,50.20
2023-05-14T20:49:51.578Z,50.04
2023-05-14T20:54:53.839Z,49.99
2023-05-14T20:59:56.014Z,49.76
2023-05-14T21:04:58.285Z,49.72
2023-05-14T21:10:00.521Z,49.49
2023-05-14T21:15:03.074Z,49.00
2023-05-14T21:20:05.676Z,49.00
2023-05-14T21:25:08.226Z,48.65
2023-05-14T21:30:10.999Z,48.10
2023-05-14T21:35:13.212Z,48.03
2023-05-14T21:40:15.567Z,48.35
2023-05-14T21:45:17.714Z,48.47
2023-05-14T21:50:20.143Z,48.63
2023-05-14T21:55:22.797Z,48.89
2023-05-14T22:00:25.543Z,48.62
2023-05-14T22:05:27.955Z,48.89
2023-05-14T22:10:31.631Z,49.03
2023-05-14T22:15:33.841Z,49.33
2023-05-14T22:20:36.472Z,49.17
2023-05-14T22:25:38.649Z,48.91
2023-05-14T22:30:40.892Z,48.36
2023-05-14T22:35:43.000Z,48.24
2023-05-14T22:40:45.082Z,47.95
2023-05-14T22:45:47.209Z,47.93
2023-05-14T22:50:49.308Z,48.08
2023-05-14T22:55:51.586Z,47.97
2023-05-14T23:00:53.714Z,48.41
2023-05-14T23:05:56.042Z,48.44
2023-05-14T23:10:58.105Z,48.72
2023-05-14T23:16:01.286Z,48.83
2023-05-14T23:21:03.603Z,48.75
2023-05-14T23:26:05.895Z,49.02
2023-05-14T23:31:08.021Z,49.26
2023-05-14T23:36:10.879Z,49.33
2023-05-14T23:41:13.058Z,49.46
2023-05-14T23:46:15.810Z,49.59
2023-05-14T23:51:19.019Z,49.89
2023-05-14T23:56:21.190Z,49.77
